sensor_id;sensor_type;location;lat;lon;timestamp;P1;durP1;ratioP1;P2;durP2;ratioP2
13404;SDS011;6773;51.192;7.024;2024-01-16T00:01:52;20.33;;;13.97;;
13404;SDS011;6773;51.192;7.024;2024-01-16T00:04:18;19.03;;;11.60;;
13404;SDS011;6773;51.192;7.024;2024-01-16T00:06:44;22.77;;;14.73;;
13404;SDS011;6773;51.192;7.024;2024-01-16T00:09:10;13.43;;;10.10;;
13404;SDS011;6773;51.192;7.024;2024-01-16T00:11:42;15.33;;;9.43;;
13404;SDS011;6773;51.192;7.024;2024-01-16T00:14:08;15.50;;;10.97;;
13404;SDS011;6773;51.192;7.024;2024-01-16T00:16:41;13.63;;;10.03;;
13404;SDS011;6773;51.192;7.024;2024-01-16T00:19:07;14.20;;;10.67;;
13404;SDS011;6773;51.192;7.024;2024-01-16T00:21:37;20.67;;;12.43;;
13404;SDS011;6773;51.192;7.024;2024-01-16T00:24:03;15.90;;;10.90;;
13404;SDS011;6773;51.192;7.024;2024-01-16T00:26:30;20.47;;;10.93;;
13404;SDS011;6773;51.192;7.024;2024-01-16T00:28:56;15.83;;;11.23;;
13404;SDS011;6773;51.192;7.024;2024-01-16T00:31:22;17.13;;;10.73;;
13404;SDS011;6773;51.192;7.024;2024-01-16T00:33:48;17.40;;;10.67;;
13404;SDS011;6773;51.192;7.024;2024-01-16T00:36:14;14.07;;;10.40;;
13404;SDS011;6773;51.192;7.024;2024-01-16T00:38:40;15.13;;;9.50;;
13404;SDS011;6773;51.192;7.024;2024-01-16T00:41:06;14.00;;;9.43;;
13404;SDS011;6773;51.192;7.024;2024-01-16T00:43:32;15.07;;;9.00;;
13404;SDS011;6773;51.192;7.024;2024-01-16T00:46:00;15.80;;;10.17;;
13404;SDS011;6773;51.192;7.024;2024-01-16T00:48:26;15.63;;;8.27;;
13404;SDS011;6773;51.192;7.024;2024-01-16T00:50:52;11.57;;;9.17;;
13404;SDS011;6773;51.192;7.024;2024-01-16T00:53:18;14.80;;;10.93;;
13404;SDS011;6773;51.192;7.024;2024-01-16T00:55:44;13.03;;;10.40;;
13404;SDS011;6773;51.192;7.024;2024-01-16T00:58:10;15.30;;;10.13;;
13404;SDS011;6773;51.192;7.024;2024-01-16T01:00:36;17.37;;;8.83;;
13404;SDS011;6773;51.192;7.024;2024-01-16T01:03:02;13.83;;;9.43;;
13404;SDS011;6773;51.192;7.024;2024-01-16T01:05:29;15.07;;;9.20;;
13404;SDS011;6773;51.192;7.024;2024-01-16T01:07:55;18.50;;;10.63;;
13404;SDS011;6773;51.192;7.024;2024-01-16T01:10:21;15.63;;;10.10;;
13404;SDS011;6773;51.192;7.024;2024-01-16T01:12:47;13.13;;;9.57;;
13404;SDS011;6773;51.192;7.024;2024-01-16T01:15:13;14.93;;;10.80;;
13404;SDS011;6773;51.192;7.024;2024-01-16T01:17:39;13.30;;;9.57;;
13404;SDS011;6773;51.192;7.024;2024-01-16T01:20:05;13.47;;;9.80;;
13404;SDS011;6773;51.192;7.024;2024-01-16T01:22:32;18.20;;;11.17;;
13404;SDS011;6773;51.192;7.024;2024-01-16T01:24:57;15.50;;;9.17;;
13404;SDS011;6773;51.192;7.024;2024-01-16T01:27:24;20.77;;;10.23;;
13404;SDS011;6773;51.192;7.024;2024-01-16T01:29:50;16.07;;;11.33;;
13404;SDS011;6773;51.192;7.024;2024-01-16T01:32:15;10.67;;;7.70;;
13404;SDS011;6773;51.192;7.024;2024-01-16T01:34:41;21.47;;;13.77;;
13404;SDS011;6773;51.192;7.024;2024-01-16T01:37:07;14.17;;;10.23;;
13404;SDS011;6773;51.192;7.024;2024-01-16T01:39:33;20.20;;;13.80;;
13404;SDS011;6773;51.192;7.024;2024-01-16T01:41:59;21.60;;;11.20;;
13404;SDS011;6773;51.192;7.024;2024-01-16T01:44:24;16.13;;;10.80;;
13404;SDS011;6773;51.192;7.024;2024-01-16T01:46:51;17.00;;;9.80;;
13404;SDS011;6773;51.192;7.024;2024-01-16T01:49:17;16.80;;;12.73;;
13404;SDS011;6773;51.192;7.024;2024-01-16T01:51:43;20.17;;;13.37;;
13404;SDS011;6773;51.192;7.024;2024-01-16T01:54:09;22.37;;;13.03;;
13404;SDS011;6773;51.192;7.024;2024-01-16T01:56:36;23.17;;;12.90;;
13404;SDS011;6773;51.192;7.024;2024-01-16T01:59:02;19.40;;;13.57;;
13404;SDS011;6773;51.192;7.024;2024-01-16T02:01:29;21.60;;;13.77;;
13404;SDS011;6773;51.192;7.024;2024-01-16T02:03:56;22.03;;;14.17;;
13404;SDS011;6773;51.192;7.024;2024-01-16T02:06:24;22.37;;;12.67;;
13404;SDS011;6773;51.192;7.024;2024-01-16T02:08:50;21.30;;;13.17;;
13404;SDS011;6773;51.192;7.024;2024-01-16T02:11:16;21.27;;;13.33;;
13404;SDS011;6773;51.192;7.024;2024-01-16T02:13:43;21.10;;;14.57;;
13404;SDS011;6773;51.192;7.024;2024-01-16T02:16:21;21.67;;;13.17;;
13404;SDS011;6773;51.192;7.024;2024-01-16T02:18:48;21.87;;;12.87;;
13404;SDS011;6773;51.192;7.024;2024-01-16T02:21:20;20.73;;;13.93;;
13404;SDS011;6773;51.192;7.024;2024-01-16T02:23:46;20.13;;;12.77;;
13404;SDS011;6773;51.192;7.024;2024-01-16T02:26:15;22.20;;;15.13;;
13404;SDS011;6773;51.192;7.024;2024-01-16T02:28:42;20.80;;;12.80;;
13404;SDS011;6773;51.192;7.024;2024-01-16T02:31:08;23.07;;;14.63;;
13404;SDS011;6773;51.192;7.024;2024-01-16T02:33:34;21.03;;;13.93;;
13404;SDS011;6773;51.192;7.024;2024-01-16T02:36:00;18.67;;;11.70;;
13404;SDS011;6773;51.192;7.024;2024-01-16T02:38:26;19.60;;;12.73;;
13404;SDS011;6773;51.192;7.024;2024-01-16T02:40:52;22.07;;;14.17;;
13404;SDS011;6773;51.192;7.024;2024-01-16T02:43:18;17.37;;;12.30;;
13404;SDS011;6773;51.192;7.024;2024-01-16T02:45:44;16.90;;;11.13;;
13404;SDS011;6773;51.192;7.024;2024-01-16T02:48:10;18.47;;;12.87;;
13404;SDS011;6773;51.192;7.024;2024-01-16T02:50:36;19.77;;;13.53;;
13404;SDS011;6773;51.192;7.024;2024-01-16T02:53:03;22.83;;;14.07;;
13404;SDS011;6773;51.192;7.024;2024-01-16T02:55:29;19.47;;;12.27;;
13404;SDS011;6773;51.192;7.024;2024-01-16T02:57:55;26.93;;;14.60;;
13404;SDS011;6773;51.192;7.024;2024-01-16T03:00:21;20.53;;;13.13;;
13404;SDS011;6773;51.192;7.024;2024-01-16T03:02:47;19.33;;;13.33;;
13404;SDS011;6773;51.192;7.024;2024-01-16T03:05:13;26.13;;;15.90;;
13404;SDS011;6773;51.192;7.024;2024-01-16T03:07:40;23.93;;;14.10;;
13404;SDS011;6773;51.192;7.024;2024-01-16T03:10:06;23.50;;;15.47;;
13404;SDS011;6773;51.192;7.024;2024-01-16T03:12:32;23.00;;;13.80;;
13404;SDS011;6773;51.192;7.024;2024-01-16T03:14:58;31.90;;;14.83;;
13404;SDS011;6773;51.192;7.024;2024-01-16T03:17:24;21.20;;;13.63;;
13404;SDS011;6773;51.192;7.024;2024-01-16T03:19:50;22.10;;;13.83;;
13404;SDS011;6773;51.192;7.024;2024-01-16T03:22:16;18.37;;;12.60;;
13404;SDS011;6773;51.192;7.024;2024-01-16T03:24:43;23.87;;;14.47;;
13404;SDS011;6773;51.192;7.024;2024-01-16T03:27:09;22.73;;;14.60;;
13404;SDS011;6773;51.192;7.024;2024-01-16T03:29:35;21.10;;;14.47;;
13404;SDS011;6773;51.192;7.024;2024-01-16T03:32:01;20.57;;;14.13;;
13404;SDS011;6773;51.192;7.024;2024-01-16T03:34:27;20.07;;;11.67;;
13404;SDS011;6773;51.192;7.024;2024-01-16T03:36:53;25.23;;;15.10;;
13404;SDS011;6773;51.192;7.024;2024-01-16T03:39:19;22.00;;;13.87;;
13404;SDS011;6773;51.192;7.024;2024-01-16T03:41:44;19.17;;;12.60;;
13404;SDS011;6773;51.192;7.024;2024-01-16T03:44:10;22.53;;;13.87;;
13404;SDS011;6773;51.192;7.024;2024-01-16T03:46:36;23.47;;;12.93;;
13404;SDS011;6773;51.192;7.024;2024-01-16T03:49:02;15.77;;;11.40;;
13404;SDS011;6773;51.192;7.024;2024-01-16T03:51:28;22.30;;;12.60;;
13404;SDS011;6773;51.192;7.024;2024-01-16T03:53:54;19.50;;;12.80;;
13404;SDS011;6773;51.192;7.024;2024-01-16T03:56:21;20.97;;;12.93;;
13404;SDS011;6773;51.192;7.024;2024-01-16T03:58:47;19.87;;;13.77;;
13404;SDS011;6773;51.192;7.024;2024-01-16T04:01:13;15.20;;;11.67;;
13404;SDS011;6773;51.192;7.024;2024-01-16T04:03:39;22.03;;;13.17;;
13404;SDS011;6773;51.192;7.024;2024-01-16T04:06:23;18.17;;;13.07;;
13404;SDS011;6773;51.192;7.024;2024-01-16T04:08:49;14.30;;;10.87;;
13404;SDS011;6773;51.192;7.024;2024-01-16T04:11:15;15.80;;;11.13;;
13404;SDS011;6773;51.192;7.024;2024-01-16T04:13:41;16.90;;;11.93;;
13404;SDS011;6773;51.192;7.024;2024-01-16T04:16:07;23.47;;;13.20;;
13404;SDS011;6773;51.192;7.024;2024-01-16T04:18:36;17.70;;;11.67;;
13404;SDS011;6773;51.192;7.024;2024-01-16T04:21:03;18.50;;;10.97;;
13404;SDS011;6773;51.192;7.024;2024-01-16T04:23:29;17.47;;;12.27;;
13404;SDS011;6773;51.192;7.024;2024-01-16T04:25:55;27.57;;;12.20;;
13404;SDS011;6773;51.192;7.024;2024-01-16T04:28:21;21.13;;;12.23;;
13404;SDS011;6773;51.192;7.024;2024-01-16T04:30:47;18.27;;;11.43;;
13404;SDS011;6773;51.192;7.024;2024-01-16T04:33:13;16.07;;;11.43;;
13404;SDS011;6773;51.192;7.024;2024-01-16T04:35:39;21.50;;;11.50;;
13404;SDS011;6773;51.192;7.024;2024-01-16T04:38:04;15.73;;;10.30;;
13404;SDS011;6773;51.192;7.024;2024-01-16T04:40:30;16.27;;;12.70;;
13404;SDS011;6773;51.192;7.024;2024-01-16T04:42:56;16.13;;;10.97;;
13404;SDS011;6773;51.192;7.024;2024-01-16T04:45:22;17.93;;;10.57;;
13404;SDS011;6773;51.192;7.024;2024-01-16T04:47:48;19.60;;;11.17;;
13404;SDS011;6773;51.192;7.024;2024-01-16T04:50:13;16.43;;;10.63;;
13404;SDS011;6773;51.192;7.024;2024-01-16T04:52:39;15.07;;;9.10;;
13404;SDS011;6773;51.192;7.024;2024-01-16T04:55:05;7.07;;;6.37;;
13404;SDS011;6773;51.192;7.024;2024-01-16T04:57:32;16.77;;;10.53;;
13404;SDS011;6773;51.192;7.024;2024-01-16T04:59:58;16.57;;;9.97;;
13404;SDS011;6773;51.192;7.024;2024-01-16T05:02:24;16.27;;;11.27;;
13404;SDS011;6773;51.192;7.024;2024-01-16T05:04:50;14.00;;;10.13;;
13404;SDS011;6773;51.192;7.024;2024-01-16T05:07:17;18.47;;;12.47;;
13404;SDS011;6773;51.192;7.024;2024-01-16T05:09:45;23.23;;;12.77;;
13404;SDS011;6773;51.192;7.024;2024-01-16T05:12:11;16.53;;;11.47;;
13404;SDS011;6773;51.192;7.024;2024-01-16T05:14:38;21.53;;;12.93;;
13404;SDS011;6773;51.192;7.024;2024-01-16T05:17:04;18.57;;;12.13;;
13404;SDS011;6773;51.192;7.024;2024-01-16T05:19:30;21.53;;;13.27;;
13404;SDS011;6773;51.192;7.024;2024-01-16T05:21:56;19.70;;;13.53;;
13404;SDS011;6773;51.192;7.024;2024-01-16T05:24:22;18.70;;;11.83;;
13404;SDS011;6773;51.192;7.024;2024-01-16T05:26:48;23.93;;;15.43;;
13404;SDS011;6773;51.192;7.024;2024-01-16T05:29:14;21.90;;;12.77;;
13404;SDS011;6773;51.192;7.024;2024-01-16T05:31:40;17.53;;;12.40;;
13404;SDS011;6773;51.192;7.024;2024-01-16T05:34:07;17.70;;;12.97;;
13404;SDS011;6773;51.192;7.024;2024-01-16T05:36:33;13.43;;;10.70;;
13404;SDS011;6773;51.192;7.024;2024-01-16T05:38:59;16.17;;;11.60;;
13404;SDS011;6773;51.192;7.024;2024-01-16T05:41:24;19.00;;;12.50;;
13404;SDS011;6773;51.192;7.024;2024-01-16T05:43:50;19.40;;;12.33;;
13404;SDS011;6773;51.192;7.024;2024-01-16T05:46:16;24.50;;;13.37;;
13404;SDS011;6773;51.192;7.024;2024-01-16T05:48:42;19.03;;;12.03;;
13404;SDS011;6773;51.192;7.024;2024-01-16T05:51:08;22.40;;;13.17;;
13404;SDS011;6773;51.192;7.024;2024-01-16T05:53:34;21.73;;;13.80;;
13404;SDS011;6773;51.192;7.024;2024-01-16T05:56:00;17.73;;;11.77;;
13404;SDS011;6773;51.192;7.024;2024-01-16T05:58:26;22.30;;;13.93;;
13404;SDS011;6773;51.192;7.024;2024-01-16T06:00:52;27.10;;;13.13;;
13404;SDS011;6773;51.192;7.024;2024-01-16T06:03:18;23.47;;;12.50;;
13404;SDS011;6773;51.192;7.024;2024-01-16T06:05:44;22.93;;;13.87;;
13404;SDS011;6773;51.192;7.024;2024-01-16T06:08:10;20.00;;;11.07;;
13404;SDS011;6773;51.192;7.024;2024-01-16T06:10:36;19.07;;;10.93;;
13404;SDS011;6773;51.192;7.024;2024-01-16T06:13:02;22.17;;;10.67;;
13404;SDS011;6773;51.192;7.024;2024-01-16T06:15:27;15.43;;;10.43;;
13404;SDS011;6773;51.192;7.024;2024-01-16T06:17:53;20.47;;;10.03;;
13404;SDS011;6773;51.192;7.024;2024-01-16T06:20:19;20.17;;;11.10;;
13404;SDS011;6773;51.192;7.024;2024-01-16T06:22:45;18.03;;;8.03;;
13404;SDS011;6773;51.192;7.024;2024-01-16T06:25:11;19.23;;;9.70;;
13404;SDS011;6773;51.192;7.024;2024-01-16T06:27:37;15.80;;;8.67;;
13404;SDS011;6773;51.192;7.024;2024-01-16T06:30:03;18.13;;;9.10;;
13404;SDS011;6773;51.192;7.024;2024-01-16T06:32:29;13.80;;;8.20;;
13404;SDS011;6773;51.192;7.024;2024-01-16T06:34:55;18.97;;;9.10;;
13404;SDS011;6773;51.192;7.024;2024-01-16T06:37:21;13.20;;;8.23;;
13404;SDS011;6773;51.192;7.024;2024-01-16T06:39:47;10.73;;;6.33;;
13404;SDS011;6773;51.192;7.024;2024-01-16T06:42:13;15.37;;;7.67;;
13404;SDS011;6773;51.192;7.024;2024-01-16T06:44:40;22.70;;;8.30;;
13404;SDS011;6773;51.192;7.024;2024-01-16T06:47:06;8.80;;;6.30;;
13404;SDS011;6773;51.192;7.024;2024-01-16T06:49:32;9.70;;;7.40;;
13404;SDS011;6773;51.192;7.024;2024-01-16T06:51:58;13.23;;;8.23;;
13404;SDS011;6773;51.192;7.024;2024-01-16T06:54:24;12.07;;;7.57;;
13404;SDS011;6773;51.192;7.024;2024-01-16T06:56:50;12.57;;;7.33;;
13404;SDS011;6773;51.192;7.024;2024-01-16T06:59:16;14.20;;;7.67;;
13404;SDS011;6773;51.192;7.024;2024-01-16T07:01:44;11.73;;;6.83;;
13404;SDS011;6773;51.192;7.024;2024-01-16T07:04:10;12.50;;;7.20;;
13404;SDS011;6773;51.192;7.024;2024-01-16T07:06:39;14.13;;;5.93;;
13404;SDS011;6773;51.192;7.024;2024-01-16T07:09:05;10.37;;;6.93;;
13404;SDS011;6773;51.192;7.024;2024-01-16T07:11:30;7.60;;;6.30;;
13404;SDS011;6773;51.192;7.024;2024-01-16T07:13:56;9.00;;;6.43;;
13404;SDS011;6773;51.192;7.024;2024-01-16T07:16:22;14.37;;;6.40;;
13404;SDS011;6773;51.192;7.024;2024-01-16T07:18:48;8.27;;;5.97;;
13404;SDS011;6773;51.192;7.024;2024-01-16T07:21:18;12.73;;;6.30;;
13404;SDS011;6773;51.192;7.024;2024-01-16T07:23:44;12.00;;;6.57;;
13404;SDS011;6773;51.192;7.024;2024-01-16T07:26:10;10.17;;;5.43;;
13404;SDS011;6773;51.192;7.024;2024-01-16T07:28:36;10.30;;;5.10;;
13404;SDS011;6773;51.192;7.024;2024-01-16T07:31:02;10.13;;;5.90;;
13404;SDS011;6773;51.192;7.024;2024-01-16T07:33:28;18.43;;;8.77;;
13404;SDS011;6773;51.192;7.024;2024-01-16T07:35:54;10.87;;;5.57;;
13404;SDS011;6773;51.192;7.024;2024-01-16T07:38:20;10.20;;;5.30;;
13404;SDS011;6773;51.192;7.024;2024-01-16T07:40:46;11.90;;;5.63;;
13404;SDS011;6773;51.192;7.024;2024-01-16T07:43:12;11.23;;;5.27;;
13404;SDS011;6773;51.192;7.024;2024-01-16T07:45:38;10.00;;;4.67;;
13404;SDS011;6773;51.192;7.024;2024-01-16T07:48:04;10.37;;;5.00;;
13404;SDS011;6773;51.192;7.024;2024-01-16T07:50:30;10.80;;;5.17;;
13404;SDS011;6773;51.192;7.024;2024-01-16T07:52:56;12.00;;;5.57;;
13404;SDS011;6773;51.192;7.024;2024-01-16T07:55:22;6.40;;;4.40;;
13404;SDS011;6773;51.192;7.024;2024-01-16T07:57:47;13.30;;;5.00;;
13404;SDS011;6773;51.192;7.024;2024-01-16T08:00:13;10.13;;;4.97;;
13404;SDS011;6773;51.192;7.024;2024-01-16T08:02:40;10.53;;;4.77;;
13404;SDS011;6773;51.192;7.024;2024-01-16T08:05:06;10.93;;;5.03;;
13404;SDS011;6773;51.192;7.024;2024-01-16T08:07:33;11.53;;;5.13;;
13404;SDS011;6773;51.192;7.024;2024-01-16T08:09:59;10.60;;;4.47;;
13404;SDS011;6773;51.192;7.024;2024-01-16T08:12:25;10.77;;;4.43;;
13404;SDS011;6773;51.192;7.024;2024-01-16T08:14:51;7.97;;;4.33;;
13404;SDS011;6773;51.192;7.024;2024-01-16T08:17:17;12.70;;;3.80;;
13404;SDS011;6773;51.192;7.024;2024-01-16T08:19:43;9.53;;;4.17;;
13404;SDS011;6773;51.192;7.024;2024-01-16T08:22:09;8.50;;;3.93;;
13404;SDS011;6773;51.192;7.024;2024-01-16T08:24:35;5.17;;;3.00;;
13404;SDS011;6773;51.192;7.024;2024-01-16T08:27:01;11.00;;;4.27;;
13404;SDS011;6773;51.192;7.024;2024-01-16T08:29:28;9.10;;;3.33;;
13404;SDS011;6773;51.192;7.024;2024-01-16T08:31:54;7.20;;;3.90;;
13404;SDS011;6773;51.192;7.024;2024-01-16T08:34:19;5.60;;;3.60;;
13404;SDS011;6773;51.192;7.024;2024-01-16T08:36:45;7.33;;;4.00;;
13404;SDS011;6773;51.192;7.024;2024-01-16T08:39:11;5.77;;;3.73;;
13404;SDS011;6773;51.192;7.024;2024-01-16T08:41:37;7.70;;;3.80;;
13404;SDS011;6773;51.192;7.024;2024-01-16T08:44:03;7.00;;;3.37;;
13404;SDS011;6773;51.192;7.024;2024-01-16T08:46:30;8.00;;;4.10;;
13404;SDS011;6773;51.192;7.024;2024-01-16T08:48:56;6.23;;;3.37;;
13404;SDS011;6773;51.192;7.024;2024-01-16T08:51:22;6.63;;;3.77;;
13404;SDS011;6773;51.192;7.024;2024-01-16T08:53:48;7.23;;;3.77;;
13404;SDS011;6773;51.192;7.024;2024-01-16T08:56:14;10.53;;;3.87;;
13404;SDS011;6773;51.192;7.024;2024-01-16T08:58:41;5.87;;;3.60;;
13404;SDS011;6773;51.192;7.024;2024-01-16T09:01:07;6.33;;;3.47;;
13404;SDS011;6773;51.192;7.024;2024-01-16T09:03:35;8.33;;;4.10;;
13404;SDS011;6773;51.192;7.024;2024-01-16T09:06:01;5.13;;;3.87;;
13404;SDS011;6773;51.192;7.024;2024-01-16T09:08:27;5.50;;;3.53;;
13404;SDS011;6773;51.192;7.024;2024-01-16T09:10:53;7.17;;;3.90;;
13404;SDS011;6773;51.192;7.024;2024-01-16T09:13:20;6.10;;;3.83;;
13404;SDS011;6773;51.192;7.024;2024-01-16T09:15:47;9.10;;;3.90;;
13404;SDS011;6773;51.192;7.024;2024-01-16T09:18:13;6.83;;;3.60;;
13404;SDS011;6773;51.192;7.024;2024-01-16T09:20:39;8.30;;;3.87;;
13404;SDS011;6773;51.192;7.024;2024-01-16T09:23:05;6.90;;;3.90;;
13404;SDS011;6773;51.192;7.024;2024-01-16T09:25:31;7.40;;;4.23;;
13404;SDS011;6773;51.192;7.024;2024-01-16T09:27:56;5.57;;;3.70;;
13404;SDS011;6773;51.192;7.024;2024-01-16T09:30:22;8.37;;;4.27;;
13404;SDS011;6773;51.192;7.024;2024-01-16T09:32:48;5.40;;;3.70;;
13404;SDS011;6773;51.192;7.024;2024-01-16T09:35:14;6.80;;;3.70;;
13404;SDS011;6773;51.192;7.024;2024-01-16T09:37:40;5.13;;;3.73;;
13404;SDS011;6773;51.192;7.024;2024-01-16T09:40:07;4.10;;;3.50;;
13404;SDS011;6773;51.192;7.024;2024-01-16T09:42:33;4.27;;;3.07;;
13404;SDS011;6773;51.192;7.024;2024-01-16T09:45:00;4.17;;;3.03;;
13404;SDS011;6773;51.192;7.024;2024-01-16T09:47:32;5.50;;;3.20;;
13404;SDS011;6773;51.192;7.024;2024-01-16T09:50:01;8.53;;;4.27;;
13404;SDS011;6773;51.192;7.024;2024-01-16T09:52:28;6.40;;;3.40;;
13404;SDS011;6773;51.192;7.024;2024-01-16T09:54:54;8.53;;;4.00;;
13404;SDS011;6773;51.192;7.024;2024-01-16T09:57:20;7.43;;;3.97;;
13404;SDS011;6773;51.192;7.024;2024-01-16T09:59:51;4.97;;;3.47;;
13404;SDS011;6773;51.192;7.024;2024-01-16T10:02:17;6.50;;;3.67;;
13404;SDS011;6773;51.192;7.024;2024-01-16T10:04:44;5.40;;;3.57;;
13404;SDS011;6773;51.192;7.024;2024-01-16T10:07:10;9.43;;;4.10;;
13404;SDS011;6773;51.192;7.024;2024-01-16T10:09:39;6.77;;;3.83;;
13404;SDS011;6773;51.192;7.024;2024-01-16T10:12:06;5.70;;;3.40;;
13404;SDS011;6773;51.192;7.024;2024-01-16T10:14:32;7.87;;;3.77;;
13404;SDS011;6773;51.192;7.024;2024-01-16T10:17:02;10.10;;;4.03;;
13404;SDS011;6773;51.192;7.024;2024-01-16T10:19:47;8.10;;;3.93;;
13404;SDS011;6773;51.192;7.024;2024-01-16T10:22:13;6.70;;;4.37;;
13404;SDS011;6773;51.192;7.024;2024-01-16T10:24:39;6.03;;;3.87;;
13404;SDS011;6773;51.192;7.024;2024-01-16T10:27:06;7.30;;;3.93;;
13404;SDS011;6773;51.192;7.024;2024-01-16T10:29:32;6.23;;;3.77;;
13404;SDS011;6773;51.192;7.024;2024-01-16T10:31:58;7.70;;;3.60;;
13404;SDS011;6773;51.192;7.024;2024-01-16T10:34:24;5.67;;;3.33;;
13404;SDS011;6773;51.192;7.024;2024-01-16T10:36:51;4.37;;;3.57;;
13404;SDS011;6773;51.192;7.024;2024-01-16T10:39:23;3.70;;;2.83;;
13404;SDS011;6773;51.192;7.024;2024-01-16T10:41:58;6.73;;;3.60;;
13404;SDS011;6773;51.192;7.024;2024-01-16T10:44:25;6.77;;;3.50;;
13404;SDS011;6773;51.192;7.024;2024-01-16T10:46:52;5.50;;;4.00;;
13404;SDS011;6773;51.192;7.024;2024-01-16T10:49:35;4.17;;;3.47;;
13404;SDS011;6773;51.192;7.024;2024-01-16T10:52:01;8.10;;;4.10;;
13404;SDS011;6773;51.192;7.024;2024-01-16T10:54:28;4.00;;;3.03;;
13404;SDS011;6773;51.192;7.024;2024-01-16T10:56:54;7.97;;;3.93;;
13404;SDS011;6773;51.192;7.024;2024-01-16T10:59:24;6.30;;;3.50;;
13404;SDS011;6773;51.192;7.024;2024-01-16T11:01:51;7.73;;;3.80;;
13404;SDS011;6773;51.192;7.024;2024-01-16T11:04:20;13.90;;;3.53;;
13404;SDS011;6773;51.192;7.024;2024-01-16T11:06:51;6.53;;;3.47;;
13404;SDS011;6773;51.192;7.024;2024-01-16T11:09:17;8.37;;;4.17;;
13404;SDS011;6773;51.192;7.024;2024-01-16T11:11:44;9.87;;;4.07;;
13404;SDS011;6773;51.192;7.024;2024-01-16T11:14:11;4.00;;;3.43;;
13404;SDS011;6773;51.192;7.024;2024-01-16T11:16:37;9.10;;;3.73;;
13404;SDS011;6773;51.192;7.024;2024-01-16T11:19:04;9.50;;;3.70;;
13404;SDS011;6773;51.192;7.024;2024-01-16T11:21:33;7.50;;;3.80;;
13404;SDS011;6773;51.192;7.024;2024-01-16T11:24:00;5.63;;;3.53;;
13404;SDS011;6773;51.192;7.024;2024-01-16T11:28:59;4.43;;;3.40;;
13404;SDS011;6773;51.192;7.024;2024-01-16T11:31:32;5.63;;;3.70;;
13404;SDS011;6773;51.192;7.024;2024-01-16T11:33:59;10.10;;;3.87;;
13404;SDS011;6773;51.192;7.024;2024-01-16T11:39:20;6.60;;;3.90;;
13404;SDS011;6773;51.192;7.024;2024-01-16T11:41:50;7.00;;;4.13;;
13404;SDS011;6773;51.192;7.024;2024-01-16T11:47:18;4.90;;;4.10;;
13404;SDS011;6773;51.192;7.024;2024-01-16T11:49:45;7.60;;;4.13;;
13404;SDS011;6773;51.192;7.024;2024-01-16T11:52:11;5.57;;;3.70;;
13404;SDS011;6773;51.192;7.024;2024-01-16T11:54:38;6.27;;;4.17;;
13404;SDS011;6773;51.192;7.024;2024-01-16T12:02:48;13.43;;;4.17;;
13404;SDS011;6773;51.192;7.024;2024-01-16T12:05:15;10.87;;;4.03;;
13404;SDS011;6773;51.192;7.024;2024-01-16T12:10:14;5.70;;;4.13;;
13404;SDS011;6773;51.192;7.024;2024-01-16T12:12:41;10.80;;;4.27;;
13404;SDS011;6773;51.192;7.024;2024-01-16T12:15:12;5.03;;;3.70;;
13404;SDS011;6773;51.192;7.024;2024-01-16T12:17:50;10.33;;;3.87;;
13404;SDS011;6773;51.192;7.024;2024-01-16T12:20:20;7.27;;;3.70;;
13404;SDS011;6773;51.192;7.024;2024-01-16T12:22:52;5.23;;;3.77;;
13404;SDS011;6773;51.192;7.024;2024-01-16T12:25:19;7.97;;;3.90;;
13404;SDS011;6773;51.192;7.024;2024-01-16T12:27:48;10.13;;;3.90;;
13404;SDS011;6773;51.192;7.024;2024-01-16T12:30:19;5.57;;;3.63;;
13404;SDS011;6773;51.192;7.024;2024-01-16T12:32:45;5.30;;;3.57;;
13404;SDS011;6773;51.192;7.024;2024-01-16T12:35:11;9.30;;;4.20;;
13404;SDS011;6773;51.192;7.024;2024-01-16T12:37:37;5.93;;;3.57;;
13404;SDS011;6773;51.192;7.024;2024-01-16T12:40:03;8.87;;;4.13;;
13404;SDS011;6773;51.192;7.024;2024-01-16T12:42:31;7.73;;;3.30;;
13404;SDS011;6773;51.192;7.024;2024-01-16T12:44:57;5.70;;;3.57;;
13404;SDS011;6773;51.192;7.024;2024-01-16T12:47:24;7.47;;;4.60;;
13404;SDS011;6773;51.192;7.024;2024-01-16T12:49:50;11.20;;;4.43;;
13404;SDS011;6773;51.192;7.024;2024-01-16T12:52:22;5.00;;;3.80;;
13404;SDS011;6773;51.192;7.024;2024-01-16T12:55:00;5.13;;;3.73;;
13404;SDS011;6773;51.192;7.024;2024-01-16T12:57:26;6.53;;;3.93;;
13404;SDS011;6773;51.192;7.024;2024-01-16T12:59:52;6.10;;;3.80;;
13404;SDS011;6773;51.192;7.024;2024-01-16T13:02:24;5.90;;;3.77;;
13404;SDS011;6773;51.192;7.024;2024-01-16T13:04:57;7.13;;;4.10;;
13404;SDS011;6773;51.192;7.024;2024-01-16T13:07:24;7.13;;;4.13;;
13404;SDS011;6773;51.192;7.024;2024-01-16T13:09:51;4.97;;;4.10;;
13404;SDS011;6773;51.192;7.024;2024-01-16T13:12:31;6.57;;;4.13;;
13404;SDS011;6773;51.192;7.024;2024-01-16T13:14:58;7.83;;;3.63;;
13404;SDS011;6773;51.192;7.024;2024-01-16T13:17:24;8.13;;;4.47;;
13404;SDS011;6773;51.192;7.024;2024-01-16T13:19:50;6.80;;;4.10;;
13404;SDS011;6773;51.192;7.024;2024-01-16T13:22:16;6.63;;;4.17;;
13404;SDS011;6773;51.192;7.024;2024-01-16T13:24:42;9.10;;;4.10;;
13404;SDS011;6773;51.192;7.024;2024-01-16T13:27:08;8.53;;;4.33;;
13404;SDS011;6773;51.192;7.024;2024-01-16T13:29:34;7.10;;;4.50;;
13404;SDS011;6773;51.192;7.024;2024-01-16T13:32:04;8.27;;;5.07;;
13404;SDS011;6773;51.192;7.024;2024-01-16T13:34:30;6.07;;;3.80;;
13404;SDS011;6773;51.192;7.024;2024-01-16T13:36:58;6.23;;;4.00;;
13404;SDS011;6773;51.192;7.024;2024-01-16T13:39:25;7.20;;;3.90;;
13404;SDS011;6773;51.192;7.024;2024-01-16T13:41:50;7.40;;;4.13;;
13404;SDS011;6773;51.192;7.024;2024-01-16T13:44:16;14.00;;;4.50;;
13404;SDS011;6773;51.192;7.024;2024-01-16T13:46:42;4.83;;;3.63;;
13404;SDS011;6773;51.192;7.024;2024-01-16T13:49:08;6.67;;;4.20;;
13404;SDS011;6773;51.192;7.024;2024-01-16T13:51:34;9.87;;;3.90;;
13404;SDS011;6773;51.192;7.024;2024-01-16T13:54:00;7.70;;;4.23;;
13404;SDS011;6773;51.192;7.024;2024-01-16T13:56:26;10.53;;;4.23;;
13404;SDS011;6773;51.192;7.024;2024-01-16T13:58:52;9.00;;;4.40;;
13404;SDS011;6773;51.192;7.024;2024-01-16T14:01:18;8.80;;;4.37;;
13404;SDS011;6773;51.192;7.024;2024-01-16T14:03:44;7.87;;;4.30;;
13404;SDS011;6773;51.192;7.024;2024-01-16T14:06:12;9.97;;;3.57;;
13404;SDS011;6773;51.192;7.024;2024-01-16T14:08:38;5.13;;;4.07;;
13404;SDS011;6773;51.192;7.024;2024-01-16T14:11:04;6.70;;;4.20;;
13404;SDS011;6773;51.192;7.024;2024-01-16T14:13:30;9.03;;;5.00;;
13404;SDS011;6773;51.192;7.024;2024-01-16T14:15:56;7.47;;;4.77;;
13404;SDS011;6773;51.192;7.024;2024-01-16T14:18:25;7.40;;;4.63;;
13404;SDS011;6773;51.192;7.024;2024-01-16T14:20:51;8.27;;;4.50;;
13404;SDS011;6773;51.192;7.024;2024-01-16T14:23:16;8.57;;;4.70;;
13404;SDS011;6773;51.192;7.024;2024-01-16T14:25:42;4.40;;;4.00;;
13404;SDS011;6773;51.192;7.024;2024-01-16T14:28:07;6.60;;;4.47;;
13404;SDS011;6773;51.192;7.024;2024-01-16T14:30:34;7.03;;;3.93;;
13404;SDS011;6773;51.192;7.024;2024-01-16T14:33:01;7.47;;;4.17;;
13404;SDS011;6773;51.192;7.024;2024-01-16T14:35:27;5.10;;;4.00;;
13404;SDS011;6773;51.192;7.024;2024-01-16T14:37:54;5.87;;;4.07;;
13404;SDS011;6773;51.192;7.024;2024-01-16T14:40:20;4.40;;;3.73;;
13404;SDS011;6773;51.192;7.024;2024-01-16T14:42:50;5.87;;;4.10;;
13404;SDS011;6773;51.192;7.024;2024-01-16T14:45:18;5.40;;;4.30;;
13404;SDS011;6773;51.192;7.024;2024-01-16T14:47:44;9.37;;;3.90;;
13404;SDS011;6773;51.192;7.024;2024-01-16T14:50:11;6.67;;;3.47;;
13404;SDS011;6773;51.192;7.024;2024-01-16T14:52:38;10.63;;;4.03;;
13404;SDS011;6773;51.192;7.024;2024-01-16T14:55:05;5.90;;;3.87;;
13404;SDS011;6773;51.192;7.024;2024-01-16T14:57:34;8.07;;;4.13;;
13404;SDS011;6773;51.192;7.024;2024-01-16T15:00:12;5.37;;;3.70;;
13404;SDS011;6773;51.192;7.024;2024-01-16T15:02:40;7.70;;;3.77;;